sensor_id;sensor_type;location;lat;lon;timestamp;P1;durP1;ratioP1;P2;durP2;ratioP2
51296;SDS011;37380;45.186;9.792;2023-02-08T00:00:09;36.47;;;21.95;;
51296;SDS011;37380;45.186;9.792;2023-02-08T00:02:44;39.80;;;23.73;;
51296;SDS011;37380;45.186;9.792;2023-02-08T00:05:45;40.65;;;21.90;;
51296;SDS011;37380;45.186;9.792;2023-02-08T00:08:49;41.83;;;27.47;;
51296;SDS011;37380;45.186;9.792;2023-02-08T00:11:22;35.03;;;24.98;;
51296;SDS011;37380;45.186;9.792;2023-02-08T00:13:49;34.88;;;22.92;;
51296;SDS011;37380;45.186;9.792;2023-02-08T00:16:16;39.42;;;23.23;;
51296;SDS011;37380;45.186;9.792;2023-02-08T00:18:44;28.60;;;21.90;;
51296;SDS011;37380;45.186;9.792;2023-02-08T00:21:18;34.35;;;23.92;;
51296;SDS011;37380;45.186;9.792;2023-02-08T00:24:14;33.20;;;22.23;;
51296;SDS011;37380;45.186;9.792;2023-02-08T00:26:41;47.88;;;25.80;;
51296;SDS011;37380;45.186;9.792;2023-02-08T00:29:08;57.78;;;25.98;;
51296;SDS011;37380;45.186;9.792;2023-02-08T00:31:35;43.78;;;24.95;;
51296;SDS011;37380;45.186;9.792;2023-02-08T00:34:03;36.13;;;23.70;;
51296;SDS011;37380;45.186;9.792;2023-02-08T00:36:30;37.28;;;23.33;;
51296;SDS011;37380;45.186;9.792;2023-02-08T00:39:03;40.05;;;25.65;;
51296;SDS011;37380;45.186;9.792;2023-02-08T00:42:04;42.65;;;24.50;;
51296;SDS011;37380;45.186;9.792;2023-02-08T00:44:58;34.47;;;23.20;;
51296;SDS011;37380;45.186;9.792;2023-02-08T00:47:25;64.22;;;21.85;;
51296;SDS011;37380;45.186;9.792;2023-02-08T00:49:52;34.95;;;22.73;;
51296;SDS011;37380;45.186;9.792;2023-02-08T00:52:19;50.55;;;22.55;;
51296;SDS011;37380;45.186;9.792;2023-02-08T00:54:46;40.22;;;25.88;;
51296;SDS011;37380;45.186;9.792;2023-02-08T00:57:21;35.40;;;21.83;;
51296;SDS011;37380;45.186;9.792;2023-02-08T01:00:22;43.75;;;25.90;;
51296;SDS011;37380;45.186;9.792;2023-02-08T01:03:16;47.30;;;25.25;;
51296;SDS011;37380;45.186;9.792;2023-02-08T01:05:43;45.53;;;27.00;;
51296;SDS011;37380;45.186;9.792;2023-02-08T01:08:10;59.10;;;31.30;;
51296;SDS011;37380;45.186;9.792;2023-02-08T01:10:37;49.22;;;24.83;;
51296;SDS011;37380;45.186;9.792;2023-02-08T01:13:04;47.25;;;26.63;;
51296;SDS011;37380;45.186;9.792;2023-02-08T01:15:31;44.47;;;23.38;;
51296;SDS011;37380;45.186;9.792;2023-02-08T01:17:59;39.00;;;23.35;;
51296;SDS011;37380;45.186;9.792;2023-02-08T01:20:27;47.45;;;26.80;;
51296;SDS011;37380;45.186;9.792;2023-02-08T01:23:02;45.88;;;24.52;;
51296;SDS011;37380;45.186;9.792;2023-02-08T01:25:57;52.95;;;25.05;;
51296;SDS011;37380;45.186;9.792;2023-02-08T01:28:24;48.17;;;25.88;;
51296;SDS011;37380;45.186;9.792;2023-02-08T01:30:51;40.95;;;27.20;;
51296;SDS011;37380;45.186;9.792;2023-02-08T01:33:18;41.10;;;24.70;;
51296;SDS011;37380;45.186;9.792;2023-02-08T01:35:52;48.75;;;25.73;;
51296;SDS011;37380;45.186;9.792;2023-02-08T01:38:47;46.97;;;26.13;;
51296;SDS011;37380;45.186;9.792;2023-02-08T01:46:36;41.58;;;24.52;;
51296;SDS011;37380;45.186;9.792;2023-02-08T01:54:45;46.13;;;24.33;;
51296;SDS011;37380;45.186;9.792;2023-02-08T01:57:24;41.53;;;22.92;;
51296;SDS011;37380;45.186;9.792;2023-02-08T02:00:20;33.35;;;22.60;;
51296;SDS011;37380;45.186;9.792;2023-02-08T02:02:49;42.72;;;22.88;;
51296;SDS011;37380;45.186;9.792;2023-02-08T02:05:37;32.00;;;21.58;;
51296;SDS011;37380;45.186;9.792;2023-02-08T02:08:48;56.13;;;26.33;;
51296;SDS011;37380;45.186;9.792;2023-02-08T02:11:52;35.10;;;21.75;;
51296;SDS011;37380;45.186;9.792;2023-02-08T02:14:20;39.65;;;24.98;;
51296;SDS011;37380;45.186;9.792;2023-02-08T02:16:47;39.60;;;23.05;;
51296;SDS011;37380;45.186;9.792;2023-02-08T02:19:30;36.70;;;23.38;;
51296;SDS011;37380;45.186;9.792;2023-02-08T02:33:59;43.80;;;25.50;;
51296;SDS011;37380;45.186;9.792;2023-02-08T02:37:04;38.13;;;24.67;;
51296;SDS011;37380;45.186;9.792;2023-02-08T02:51:07;39.70;;;22.27;;
51296;SDS011;37380;45.186;9.792;2023-02-08T02:53:55;39.13;;;25.73;;
51296;SDS011;37380;45.186;9.792;2023-02-08T02:56:43;36.75;;;23.33;;
51296;SDS011;37380;45.186;9.792;2023-02-08T02:59:40;32.65;;;21.67;;
51296;SDS011;37380;45.186;9.792;2023-02-08T03:02:08;39.92;;;26.48;;
51296;SDS011;37380;45.186;9.792;2023-02-08T03:09:56;56.20;;;28.67;;
51296;SDS011;37380;45.186;9.792;2023-02-08T03:21:09;55.08;;;29.38;;
51296;SDS011;37380;45.186;9.792;2023-02-08T03:24:27;53.88;;;27.15;;
51296;SDS011;37380;45.186;9.792;2023-02-08T03:33:55;42.42;;;27.25;;
51296;SDS011;37380;45.186;9.792;2023-02-08T03:36:25;43.25;;;24.08;;
51296;SDS011;37380;45.186;9.792;2023-02-08T03:38:59;43.78;;;26.27;;
51296;SDS011;37380;45.186;9.792;2023-02-08T03:41:32;48.22;;;27.33;;
51296;SDS011;37380;45.186;9.792;2023-02-08T03:44:21;42.78;;;26.30;;
51296;SDS011;37380;45.186;9.792;2023-02-08T03:46:54;40.78;;;25.42;;
51296;SDS011;37380;45.186;9.792;2023-02-08T03:49:28;49.33;;;30.95;;
51296;SDS011;37380;45.186;9.792;2023-02-08T03:52:00;42.05;;;25.33;;
51296;SDS011;37380;45.186;9.792;2023-02-08T03:54:30;35.33;;;23.27;;
51296;SDS011;37380;45.186;9.792;2023-02-08T04:00:10;44.85;;;27.52;;
51296;SDS011;37380;45.186;9.792;2023-02-08T04:03:08;51.58;;;27.55;;
51296;SDS011;37380;45.186;9.792;2023-02-08T04:06:16;43.38;;;26.75;;
51296;SDS011;37380;45.186;9.792;2023-02-08T04:08:43;38.72;;;25.05;;
51296;SDS011;37380;45.186;9.792;2023-02-08T04:11:17;44.42;;;25.73;;
51296;SDS011;37380;45.186;9.792;2023-02-08T04:14:11;34.63;;;23.13;;
51296;SDS011;37380;45.186;9.792;2023-02-08T04:16:38;44.72;;;26.83;;
51296;SDS011;37380;45.186;9.792;2023-02-08T04:19:05;44.50;;;24.33;;
51296;SDS011;37380;45.186;9.792;2023-02-08T04:21:39;52.58;;;28.55;;
51296;SDS011;37380;45.186;9.792;2023-02-08T04:24:40;45.75;;;27.77;;
51296;SDS011;37380;45.186;9.792;2023-02-08T04:27:34;53.25;;;27.65;;
51296;SDS011;37380;45.186;9.792;2023-02-08T04:30:01;46.42;;;27.77;;
51296;SDS011;37380;45.186;9.792;2023-02-08T04:32:28;48.55;;;28.27;;
51296;SDS011;37380;45.186;9.792;2023-02-08T04:34:55;44.13;;;25.88;;
51296;SDS011;37380;45.186;9.792;2023-02-08T04:37:22;52.65;;;30.00;;
51296;SDS011;37380;45.186;9.792;2023-02-08T04:39:49;63.47;;;30.95;;
51296;SDS011;37380;45.186;9.792;2023-02-08T04:42:16;49.63;;;31.50;;
51296;SDS011;37380;45.186;9.792;2023-02-08T04:44:43;44.13;;;29.60;;
51296;SDS011;37380;45.186;9.792;2023-02-08T04:47:09;55.45;;;30.70;;
51296;SDS011;37380;45.186;9.792;2023-02-08T04:49:36;51.03;;;31.75;;
51296;SDS011;37380;45.186;9.792;2023-02-08T04:52:10;57.33;;;29.70;;
51296;SDS011;37380;45.186;9.792;2023-02-08T04:55:11;49.33;;;27.45;;
51296;SDS011;37380;45.186;9.792;2023-02-08T04:58:12;45.80;;;28.60;;
51296;SDS011;37380;45.186;9.792;2023-02-08T05:00:50;48.42;;;27.55;;
51296;SDS011;37380;45.186;9.792;2023-02-08T05:03:18;52.28;;;28.58;;
51296;SDS011;37380;45.186;9.792;2023-02-08T05:05:45;56.97;;;26.95;;
51296;SDS011;37380;45.186;9.792;2023-02-08T05:08:12;51.00;;;28.15;;
51296;SDS011;37380;45.186;9.792;2023-02-08T05:10:43;61.03;;;28.75;;
51296;SDS011;37380;45.186;9.792;2023-02-08T05:13:11;53.10;;;30.30;;
51296;SDS011;37380;45.186;9.792;2023-02-08T05:15:38;56.17;;;29.05;;
51296;SDS011;37380;45.186;9.792;2023-02-08T05:18:05;55.90;;;31.13;;
51296;SDS011;37380;45.186;9.792;2023-02-08T05:20:32;50.33;;;31.60;;
51296;SDS011;37380;45.186;9.792;2023-02-08T05:23:06;55.40;;;28.88;;
51296;SDS011;37380;45.186;9.792;2023-02-08T05:26:08;44.33;;;28.08;;
51296;SDS011;37380;45.186;9.792;2023-02-08T05:29:03;49.08;;;29.08;;
51296;SDS011;37380;45.186;9.792;2023-02-08T05:31:30;45.03;;;28.40;;
51296;SDS011;37380;45.186;9.792;2023-02-08T05:33:57;55.65;;;28.90;;
51296;SDS011;37380;45.186;9.792;2023-02-08T05:36:24;84.20;;;27.55;;
51296;SDS011;37380;45.186;9.792;2023-02-08T05:38:51;48.38;;;28.33;;
51296;SDS011;37380;45.186;9.792;2023-02-08T05:41:19;59.40;;;29.88;;
51296;SDS011;37380;45.186;9.792;2023-02-08T05:43:46;45.83;;;27.35;;
51296;SDS011;37380;45.186;9.792;2023-02-08T05:46:13;48.60;;;30.15;;
51296;SDS011;37380;45.186;9.792;2023-02-08T05:48:40;63.55;;;30.67;;
51296;SDS011;37380;45.186;9.792;2023-02-08T05:51:07;47.25;;;29.50;;
51296;SDS011;37380;45.186;9.792;2023-02-08T05:53:35;54.75;;;31.58;;
51296;SDS011;37380;45.186;9.792;2023-02-08T05:56:09;64.45;;;30.85;;
51296;SDS011;37380;45.186;9.792;2023-02-08T05:59:10;53.95;;;31.30;;
51296;SDS011;37380;45.186;9.792;2023-02-08T06:02:11;46.63;;;27.27;;
51296;SDS011;37380;45.186;9.792;2023-02-08T06:05:12;41.38;;;26.10;;
51296;SDS011;37380;45.186;9.792;2023-02-08T06:07:40;49.70;;;28.60;;
51296;SDS011;37380;45.186;9.792;2023-02-08T06:10:07;50.25;;;29.80;;
51296;SDS011;37380;45.186;9.792;2023-02-08T06:12:37;50.55;;;31.35;;
51296;SDS011;37380;45.186;9.792;2023-02-08T06:15:04;59.35;;;32.70;;
51296;SDS011;37380;45.186;9.792;2023-02-08T06:17:31;44.05;;;28.55;;
51296;SDS011;37380;45.186;9.792;2023-02-08T06:19:58;47.40;;;30.05;;
51296;SDS011;37380;45.186;9.792;2023-02-08T06:22:33;52.75;;;30.20;;
51296;SDS011;37380;45.186;9.792;2023-02-08T06:25:27;46.15;;;28.55;;
51296;SDS011;37380;45.186;9.792;2023-02-08T06:27:54;49.88;;;28.95;;
51296;SDS011;37380;45.186;9.792;2023-02-08T06:30:23;52.80;;;29.50;;
51296;SDS011;37380;45.186;9.792;2023-02-08T06:32:50;46.45;;;28.45;;
51296;SDS011;37380;45.186;9.792;2023-02-08T06:35:17;47.78;;;30.10;;
51296;SDS011;37380;45.186;9.792;2023-02-08T06:37:43;52.22;;;31.30;;
51296;SDS011;37380;45.186;9.792;2023-02-08T06:40:17;48.17;;;28.75;;
51296;SDS011;37380;45.186;9.792;2023-02-08T06:43:18;46.10;;;26.58;;
51296;SDS011;37380;45.186;9.792;2023-02-08T06:46:12;56.03;;;28.83;;
51296;SDS011;37380;45.186;9.792;2023-02-08T06:48:39;46.60;;;28.80;;
51296;SDS011;37380;45.186;9.792;2023-02-08T06:51:13;59.63;;;28.27;;
51296;SDS011;37380;45.186;9.792;2023-02-08T06:54:10;54.45;;;28.88;;
51296;SDS011;37380;45.186;9.792;2023-02-08T06:56:43;52.45;;;27.85;;
51296;SDS011;37380;45.186;9.792;2023-02-08T06:59:37;50.40;;;31.10;;
51296;SDS011;37380;45.186;9.792;2023-02-08T07:02:08;54.03;;;29.83;;
51296;SDS011;37380;45.186;9.792;2023-02-08T07:04:37;61.92;;;29.58;;
51296;SDS011;37380;45.186;9.792;2023-02-08T07:07:04;47.72;;;28.92;;
51296;SDS011;37380;45.186;9.792;2023-02-08T07:09:32;56.25;;;30.23;;
51296;SDS011;37380;45.186;9.792;2023-02-08T07:12:07;49.17;;;28.83;;
51296;SDS011;37380;45.186;9.792;2023-02-08T07:15:02;48.50;;;30.63;;
51296;SDS011;37380;45.186;9.792;2023-02-08T07:20:06;50.13;;;29.77;;
51296;SDS011;37380;45.186;9.792;2023-02-08T07:22:43;59.20;;;34.20;;
51296;SDS011;37380;45.186;9.792;2023-02-08T07:25:37;48.53;;;32.38;;
51296;SDS011;37380;45.186;9.792;2023-02-08T07:28:04;56.45;;;33.70;;
51296;SDS011;37380;45.186;9.792;2023-02-08T07:30:31;67.05;;;32.83;;
51296;SDS011;37380;45.186;9.792;2023-02-08T07:32:58;46.08;;;29.77;;
51296;SDS011;37380;45.186;9.792;2023-02-08T07:35:25;54.90;;;30.15;;
51296;SDS011;37380;45.186;9.792;2023-02-08T07:37:52;56.53;;;32.95;;
51296;SDS011;37380;45.186;9.792;2023-02-08T07:40:19;53.22;;;32.50;;
51296;SDS011;37380;45.186;9.792;2023-02-08T07:42:46;53.55;;;31.27;;
51296;SDS011;37380;45.186;9.792;2023-02-08T07:45:28;52.10;;;28.77;;
51296;SDS011;37380;45.186;9.792;2023-02-08T07:48:01;47.50;;;29.52;;
51296;SDS011;37380;45.186;9.792;2023-02-08T07:51:02;54.50;;;30.20;;
51296;SDS011;37380;45.186;9.792;2023-02-08T07:53:56;44.40;;;29.20;;
51296;SDS011;37380;45.186;9.792;2023-02-08T07:56:30;51.53;;;31.45;;
51296;SDS011;37380;45.186;9.792;2023-02-08T07:59:31;45.20;;;27.55;;
51296;SDS011;37380;45.186;9.792;2023-02-08T08:03:16;41.10;;;26.30;;
51296;SDS011;37380;45.186;9.792;2023-02-08T08:06:46;37.35;;;25.35;;
51296;SDS011;37380;45.186;9.792;2023-02-08T08:09:48;50.00;;;28.35;;
51296;SDS011;37380;45.186;9.792;2023-02-08T08:24:29;50.65;;;29.60;;
51296;SDS011;37380;45.186;9.792;2023-02-08T08:31:52;45.40;;;27.35;;
51296;SDS011;37380;45.186;9.792;2023-02-08T08:34:47;47.40;;;29.00;;
51296;SDS011;37380;45.186;9.792;2023-02-08T08:37:31;47.90;;;29.98;;
51296;SDS011;37380;45.186;9.792;2023-02-08T08:40:10;44.97;;;28.23;;
51296;SDS011;37380;45.186;9.792;2023-02-08T08:43:01;37.75;;;26.85;;
51296;SDS011;37380;45.186;9.792;2023-02-08T08:45:28;49.25;;;27.75;;
51296;SDS011;37380;45.186;9.792;2023-02-08T08:51:12;43.05;;;29.27;;
51296;SDS011;37380;45.186;9.792;2023-02-08T08:55:12;36.95;;;26.55;;
51296;SDS011;37380;45.186;9.792;2023-02-08T08:58:36;37.00;;;25.92;;
51296;SDS011;37380;45.186;9.792;2023-02-08T09:02:19;45.78;;;25.20;;
51296;SDS011;37380;45.186;9.792;2023-02-08T09:04:54;80.15;;;30.77;;
51296;SDS011;37380;45.186;9.792;2023-02-08T09:10:50;51.65;;;28.48;;
51296;SDS011;37380;45.186;9.792;2023-02-08T09:13:28;45.95;;;26.23;;
51296;SDS011;37380;45.186;9.792;2023-02-08T09:17:05;55.10;;;25.77;;
51296;SDS011;37380;45.186;9.792;2023-02-08T09:19:49;35.05;;;25.45;;
51296;SDS011;37380;45.186;9.792;2023-02-08T09:22:36;49.20;;;26.38;;
51296;SDS011;37380;45.186;9.792;2023-02-08T09:33:48;31.48;;;19.45;;
51296;SDS011;37380;45.186;9.792;2023-02-08T09:36:59;33.17;;;17.65;;
51296;SDS011;37380;45.186;9.792;2023-02-08T09:39:56;31.42;;;18.67;;
51296;SDS011;37380;45.186;9.792;2023-02-08T09:45:39;27.42;;;16.38;;
51296;SDS011;37380;45.186;9.792;2023-02-08T09:52:17;32.63;;;16.63;;
51296;SDS011;37380;45.186;9.792;2023-02-08T09:55:37;36.58;;;18.70;;
51296;SDS011;37380;45.186;9.792;2023-02-08T10:02:56;37.03;;;19.00;;
51296;SDS011;37380;45.186;9.792;2023-02-08T10:05:53;25.33;;;16.30;;
51296;SDS011;37380;45.186;9.792;2023-02-08T10:08:51;33.15;;;21.52;;
51296;SDS011;37380;45.186;9.792;2023-02-08T10:20:49;23.30;;;14.77;;
51296;SDS011;37380;45.186;9.792;2023-02-08T10:26:45;25.63;;;17.92;;
51296;SDS011;37380;45.186;9.792;2023-02-08T10:34:48;24.45;;;16.33;;
51296;SDS011;37380;45.186;9.792;2023-02-08T10:37:32;27.58;;;16.88;;
51296;SDS011;37380;45.186;9.792;2023-02-08T10:40:33;32.10;;;18.98;;
51296;SDS011;37380;45.186;9.792;2023-02-08T10:43:11;29.58;;;16.40;;
51296;SDS011;37380;45.186;9.792;2023-02-08T10:46:00;25.63;;;17.10;;
51296;SDS011;37380;45.186;9.792;2023-02-08T10:51:14;30.27;;;19.55;;
51296;SDS011;37380;45.186;9.792;2023-02-08T10:53:48;21.05;;;13.88;;
51296;SDS011;37380;45.186;9.792;2023-02-08T11:02:39;27.20;;;16.63;;
51296;SDS011;37380;45.186;9.792;2023-02-08T11:05:14;20.00;;;15.13;;
51296;SDS011;37380;45.186;9.792;2023-02-08T11:16:59;29.38;;;15.35;;
51296;SDS011;37380;45.186;9.792;2023-02-08T11:19:59;20.10;;;13.88;;
51296;SDS011;37380;45.186;9.792;2023-02-08T11:22:29;34.42;;;15.40;;
51296;SDS011;37380;45.186;9.792;2023-02-08T11:24:58;27.83;;;15.00;;
51296;SDS011;37380;45.186;9.792;2023-02-08T11:27:35;27.75;;;14.70;;
51296;SDS011;37380;45.186;9.792;2023-02-08T11:30:26;22.85;;;13.60;;
51296;SDS011;37380;45.186;9.792;2023-02-08T11:36:11;29.27;;;14.50;;
51296;SDS011;37380;45.186;9.792;2023-02-08T11:38:40;29.65;;;14.50;;
51296;SDS011;37380;45.186;9.792;2023-02-08T11:41:18;26.48;;;15.82;;
51296;SDS011;37380;45.186;9.792;2023-02-08T11:44:02;22.08;;;14.60;;
51296;SDS011;37380;45.186;9.792;2023-02-08T11:46:33;19.92;;;12.77;;
51296;SDS011;37380;45.186;9.792;2023-02-08T11:49:12;23.77;;;16.45;;
51296;SDS011;37380;45.186;9.792;2023-02-08T11:51:55;42.92;;;15.13;;
51296;SDS011;37380;45.186;9.792;2023-02-08T11:54:54;27.70;;;13.68;;
51296;SDS011;37380;45.186;9.792;2023-02-08T11:58:33;38.00;;;15.55;;
51296;SDS011;37380;45.186;9.792;2023-02-08T12:01:04;25.30;;;15.55;;
51296;SDS011;37380;45.186;9.792;2023-02-08T12:03:52;30.17;;;14.25;;
51296;SDS011;37380;45.186;9.792;2023-02-08T12:10:43;20.05;;;12.57;;
51296;SDS011;37380;45.186;9.792;2023-02-08T12:20:01;20.90;;;13.38;;
51296;SDS011;37380;45.186;9.792;2023-02-08T12:31:54;31.45;;;12.90;;
51296;SDS011;37380;45.186;9.792;2023-02-08T12:38:10;25.27;;;15.45;;
51296;SDS011;37380;45.186;9.792;2023-02-08T12:53:38;20.17;;;13.35;;
51296;SDS011;37380;45.186;9.792;2023-02-08T12:56:29;22.13;;;16.70;;
51296;SDS011;37380;45.186;9.792;2023-02-08T12:59:58;30.77;;;14.90;;
51296;SDS011;37380;45.186;9.792;2023-02-08T13:12:24;19.10;;;11.50;;
51296;SDS011;37380;45.186;9.792;2023-02-08T13:15:44;23.63;;;11.48;;
51296;SDS011;37380;45.186;9.792;2023-02-08T13:19:00;20.25;;;13.77;;
51296;SDS011;37380;45.186;9.792;2023-02-08T13:21:46;19.83;;;12.23;;
51296;SDS011;37380;45.186;9.792;2023-02-08T13:24:35;22.85;;;13.80;;
51296;SDS011;37380;45.186;9.792;2023-02-08T13:27:19;18.80;;;11.70;;
51296;SDS011;37380;45.186;9.792;2023-02-08T13:32:27;26.80;;;12.55;;
51296;SDS011;37380;45.186;9.792;2023-02-08T13:36:07;28.80;;;12.75;;
51296;SDS011;37380;45.186;9.792;2023-02-08T13:39:40;15.82;;;12.18;;
51296;SDS011;37380;45.186;9.792;2023-02-08T13:42:47;21.75;;;13.77;;
51296;SDS011;37380;45.186;9.792;2023-02-08T13:48:48;22.50;;;16.02;;
51296;SDS011;37380;45.186;9.792;2023-02-08T13:52:08;27.63;;;14.43;;
51296;SDS011;37380;45.186;9.792;2023-02-08T13:55:59;15.05;;;10.85;;
51296;SDS011;37380;45.186;9.792;2023-02-08T13:59:04;18.73;;;12.18;;
51296;SDS011;37380;45.186;9.792;2023-02-08T14:28:32;22.42;;;11.05;;
51296;SDS011;37380;45.186;9.792;2023-02-08T14:36:28;15.38;;;10.68;;
51296;SDS011;37380;45.186;9.792;2023-02-08T14:42:59;46.95;;;11.88;;
51296;SDS011;37380;45.186;9.792;2023-02-08T14:46:40;16.08;;;10.68;;
51296;SDS011;37380;45.186;9.792;2023-02-08T14:49:44;13.02;;;8.88;;
51296;SDS011;37380;45.186;9.792;2023-02-08T14:56:15;10.13;;;6.30;;
51296;SDS011;37380;45.186;9.792;2023-02-08T14:59:42;10.50;;;7.22;;
51296;SDS011;37380;45.186;9.792;2023-02-08T15:02:24;11.30;;;8.68;;
51296;SDS011;37380;45.186;9.792;2023-02-08T15:05:30;14.27;;;8.48;;
51296;SDS011;37380;45.186;9.792;2023-02-08T15:08:28;12.52;;;8.15;;
51296;SDS011;37380;45.186;9.792;2023-02-08T15:11:25;11.80;;;9.73;;
51296;SDS011;37380;45.186;9.792;2023-02-08T15:14:19;12.52;;;9.55;;
51296;SDS011;37380;45.186;9.792;2023-02-08T15:17:05;17.42;;;9.05;;
51296;SDS011;37380;45.186;9.792;2023-02-08T15:20:27;16.33;;;8.70;;
51296;SDS011;37380;45.186;9.792;2023-02-08T15:23:34;29.27;;;9.20;;
51296;SDS011;37380;45.186;9.792;2023-02-08T15:26:03;14.65;;;7.20;;
51296;SDS011;37380;45.186;9.792;2023-02-08T15:28:34;11.60;;;8.20;;
51296;SDS011;37380;45.186;9.792;2023-02-08T15:31:21;11.00;;;8.40;;
51296;SDS011;37380;45.186;9.792;2023-02-08T15:34:28;17.83;;;10.15;;
51296;SDS011;37380;45.186;9.792;2023-02-08T15:37:22;14.02;;;8.23;;
51296;SDS011;37380;45.186;9.792;2023-02-08T15:39:58;18.70;;;12.18;;
51296;SDS011;37380;45.186;9.792;2023-02-08T15:42:41;19.55;;;14.05;;
51296;SDS011;37380;45.186;9.792;2023-02-08T15:45:25;22.45;;;12.07;;
51296;SDS011;37380;45.186;9.792;2023-02-08T15:47:58;17.52;;;10.73;;
51296;SDS011;37380;45.186;9.792;2023-02-08T15:50:56;19.48;;;9.82;;
51296;SDS011;37380;45.186;9.792;2023-02-08T15:54:04;16.27;;;10.32;;
51296;SDS011;37380;45.186;9.792;2023-02-08T15:57:40;16.00;;;11.60;;
51296;SDS011;37380;45.186;9.792;2023-02-08T16:00:56;12.73;;;10.18;;
51296;SDS011;37380;45.186;9.792;2023-02-08T16:06:26;19.52;;;10.75;;
51296;SDS011;37380;45.186;9.792;2023-02-08T16:09:39;15.52;;;10.95;;
51296;SDS011;37380;45.186;9.792;2023-02-08T16:17:37;18.83;;;11.48;;
51296;SDS011;37380;45.186;9.792;2023-02-08T16:20:36;14.95;;;10.90;;
51296;SDS011;37380;45.186;9.792;2023-02-08T16:23:24;27.17;;;12.35;;
51296;SDS011;37380;45.186;9.792;2023-02-08T16:26:28;23.13;;;14.75;;
51296;SDS011;37380;45.186;9.792;2023-02-08T16:29:04;23.70;;;12.35;;
51296;SDS011;37380;45.186;9.792;2023-02-08T16:31:33;21.13;;;10.93;;
51296;SDS011;37380;45.186;9.792;2023-02-08T16:37:05;24.02;;;12.50;;
51296;SDS011;37380;45.186;9.792;2023-02-08T16:39:55;29.95;;;16.23;;
51296;SDS011;37380;45.186;9.792;2023-02-08T16:42:32;22.27;;;12.50;;
51296;SDS011;37380;45.186;9.792;2023-02-08T16:45:15;28.33;;;15.55;;
51296;SDS011;37380;45.186;9.792;2023-02-08T16:48:02;25.13;;;11.88;;
51296;SDS011;37380;45.186;9.792;2023-02-08T16:51:13;25.80;;;13.95;;
51296;SDS011;37380;45.186;9.792;2023-02-08T16:55:02;23.33;;;12.80;;
51296;SDS011;37380;45.186;9.792;2023-02-08T16:58:35;24.90;;;13.75;;
51296;SDS011;37380;45.186;9.792;2023-02-08T17:01:08;18.13;;;11.60;;
51296;SDS011;37380;45.186;9.792;2023-02-08T17:03:41;22.35;;;12.27;;
51296;SDS011;37380;45.186;9.792;2023-02-08T17:06:17;29.98;;;14.98;;
51296;SDS011;37380;45.186;9.792;2023-02-08T17:09:18;24.48;;;14.75;;
51296;SDS011;37380;45.186;9.792;2023-02-08T17:11:47;26.05;;;15.30;;
51296;SDS011;37380;45.186;9.792;2023-02-08T17:14:15;25.45;;;13.82;;
51296;SDS011;37380;45.186;9.792;2023-02-08T17:16:42;31.58;;;15.88;;
51296;SDS011;37380;45.186;9.792;2023-02-08T17:19:21;24.45;;;12.65;;
51296;SDS011;37380;45.186;9.792;2023-02-08T17:22:11;27.45;;;13.60;;
51296;SDS011;37380;45.186;9.792;2023-02-08T17:24:52;32.88;;;18.80;;
51296;SDS011;37380;45.186;9.792;2023-02-08T17:28:04;27.30;;;16.77;;
51296;SDS011;37380;45.186;9.792;2023-02-08T17:31:14;46.65;;;19.80;;
51296;SDS011;37380;45.186;9.792;2023-02-08T17:33:48;29.73;;;17.13;;
51296;SDS011;37380;45.186;9.792;2023-02-08T17:36:34;27.45;;;16.55;;
51296;SDS011;37380;45.186;9.792;2023-02-08T17:39:23;31.45;;;15.85;;
51296;SDS011;37380;45.186;9.792;2023-02-08T17:42:18;40.45;;;16.33;;
51296;SDS011;37380;45.186;9.792;2023-02-08T17:44:49;23.50;;;14.80;;
51296;SDS011;37380;45.186;9.792;2023-02-08T17:47:16;19.50;;;15.07;;
51296;SDS011;37380;45.186;9.792;2023-02-08T17:49:45;21.02;;;13.23;;
51296;SDS011;37380;45.186;9.792;2023-02-08T17:52:13;21.55;;;14.55;;
51296;SDS011;37380;45.186;9.792;2023-02-08T17:54:51;29.40;;;16.25;;
51296;SDS011;37380;45.186;9.792;2023-02-08T17:57:39;32.28;;;15.18;;
51296;SDS011;37380;45.186;9.792;2023-02-08T18:00:48;32.13;;;18.85;;
51296;SDS011;37380;45.186;9.792;2023-02-08T18:03:52;26.58;;;15.18;;
51296;SDS011;37380;45.186;9.792;2023-02-08T18:06:43;40.72;;;15.82;;
51296;SDS011;37380;45.186;9.792;2023-02-08T18:09:55;30.55;;;19.38;;
51296;SDS011;37380;45.186;9.792;2023-02-08T18:12:30;29.35;;;19.48;;
51296;SDS011;37380;45.186;9.792;2023-02-08T18:15:38;29.63;;;17.50;;
51296;SDS011;37380;45.186;9.792;2023-02-08T18:18:16;37.03;;;23.33;;
51296;SDS011;37380;45.186;9.792;2023-02-08T18:21:24;33.20;;;18.42;;
51296;SDS011;37380;45.186;9.792;2023-02-08T18:23:56;27.65;;;16.95;;
51296;SDS011;37380;45.186;9.792;2023-02-08T18:26:44;25.65;;;17.10;;
51296;SDS011;37380;45.186;9.792;2023-02-08T18:29:49;35.60;;;18.77;;
51296;SDS011;37380;45.186;9.792;2023-02-08T18:32:51;30.15;;;18.52;;
51296;SDS011;37380;45.186;9.792;2023-02-08T18:38:56;32.13;;;18.58;;
51296;SDS011;37380;45.186;9.792;2023-02-08T18:41:55;32.30;;;20.83;;
51296;SDS011;37380;45.186;9.792;2023-02-08T18:44:31;36.92;;;20.73;;
51296;SDS011;37380;45.186;9.792;2023-02-08T18:47:03;36.72;;;21.85;;
51296;SDS011;37380;45.186;9.792;2023-02-08T18:49:44;30.90;;;19.60;;
51296;SDS011;37380;45.186;9.792;2023-02-08T18:52:55;32.90;;;19.23;;
51296;SDS011;37380;45.186;9.792;2023-02-08T18:57:13;27.10;;;17.80;;
51296;SDS011;37380;45.186;9.792;2023-02-08T19:00:19;37.60;;;17.55;;
51296;SDS011;37380;45.186;9.792;2023-02-08T19:02:49;28.38;;;18.63;;
51296;SDS011;37380;45.186;9.792;2023-02-08T19:05:47;26.48;;;16.77;;
51296;SDS011;37380;45.186;9.792;2023-02-08T19:09:00;27.63;;;17.25;;
51296;SDS011;37380;45.186;9.792;2023-02-08T19:12:07;32.70;;;17.20;;
51296;SDS011;37380;45.186;9.792;2023-02-08T19:14:35;30.58;;;17.40;;
51296;SDS011;37380;45.186;9.792;2023-02-08T19:17:10;34.67;;;20.90;;
51296;SDS011;37380;45.186;9.792;2023-02-08T19:20:15;24.48;;;19.38;;
51296;SDS011;37380;45.186;9.792;2023-02-08T19:22:47;27.80;;;17.67;;
51296;SDS011;37380;45.186;9.792;2023-02-08T19:25:34;35.03;;;19.42;;
51296;SDS011;37380;45.186;9.792;2023-02-08T19:29:25;32.50;;;20.40;;
51296;SDS011;37380;45.186;9.792;2023-02-08T19:32:36;33.45;;;18.95;;
51296;SDS011;37380;45.186;9.792;2023-02-08T19:39:38;28.58;;;15.70;;
51296;SDS011;37380;45.186;9.792;2023-02-08T19:42:34;31.30;;;16.05;;
51296;SDS011;37380;45.186;9.792;2023-02-08T19:45:21;27.30;;;15.90;;
51296;SDS011;37380;45.186;9.792;2023-02-08T19:48:06;25.60;;;17.23;;
51296;SDS011;37380;45.186;9.792;2023-02-08T19:50:38;33.05;;;16.73;;
51296;SDS011;37380;45.186;9.792;2023-02-08T19:53:09;24.25;;;15.80;;
51296;SDS011;37380;45.186;9.792;2023-02-08T19:56:02;32.13;;;16.42;;
51296;SDS011;37380;45.186;9.792;2023-02-08T19:59:47;33.75;;;16.20;;
51296;SDS011;37380;45.186;9.792;2023-02-08T20:03:19;28.55;;;16.25;;
51296;SDS011;37380;45.186;9.792;2023-02-08T20:06:54;23.80;;;14.73;;
51296;SDS011;37380;45.186;9.792;2023-02-08T20:13:16;18.10;;;14.57;;
51296;SDS011;37380;45.186;9.792;2023-02-08T20:16:23;25.33;;;13.60;;
51296;SDS011;37380;45.186;9.792;2023-02-08T20:19:07;22.48;;;13.13;;
51296;SDS011;37380;45.186;9.792;2023-02-08T20:22:22;23.02;;;12.13;;
51296;SDS011;37380;45.186;9.792;2023-02-08T20:26:02;20.13;;;13.50;;